Time;durP1;ratioP1;P1;durP2;ratioP2;P2;SDS_P1;SDS_P2;PMS_P1;PMS_P2;Temp;Humidity;BMP_temperature;BMP_pressure;BME280_temperature;BME280_humidity;BME280_pressure;Samples;Min_cycle;Max_cycle;Signal;HPM_P1;HPM_P2
2021/01/26 00:05:45;;;;;;;45.33;25.08;;;0.90;99.90;;;;;;12478085;28;20064;-42
2021/01/26 00:11:46;;;;;;;46.38;24.58;;;0.90;99.90;;;;;;12493000;28;20513;-42
2021/01/26 00:17:48;;;;;;;47.55;26.48;;;1.00;99.90;;;;;;12502523;28;20053;-42
2021/01/26 00:23:49;;;;;;;44.80;23.45;;;1.00;99.90;;;;;;12502158;28;20473;-42
2021/01/26 00:29:50;;;;;;;51.70;28.20;;;1.00;99.90;;;;;;12495401;28;20079;-42
2021/01/26 00:35:52;;;;;;;48.63;24.35;;;0.90;99.90;;;;;;12493143;28;20052;-42
2021/01/26 00:41:53;;;;;;;48.90;25.80;;;0.90;99.90;;;;;;12495601;28;20114;-42
2021/01/26 00:47:55;;;;;;;52.50;26.52;;;0.90;99.90;;;;;;12499019;28;20113;-42
2021/01/26 00:54:00;;;;;;;45.13;25.35;;;1.00;99.90;;;;;;12502804;28;20094;-42
2021/01/26 01:00:04;;;;;;;48.17;27.38;;;1.10;99.90;;;;;;12491696;28;20631;-42
2021/01/26 01:06:09;;;;;;;51.83;27.38;;;1.10;99.90;;;;;;12489349;28;20562;-42
2021/01/26 01:12:10;;;;;;;52.47;28.50;;;1.10;99.90;;;;;;12489833;28;21038;-42
2021/01/26 01:18:11;;;;;;;54.03;31.00;;;1.10;99.90;;;;;;12480271;28;20109;-42
2021/01/26 01:24:14;;;;;;;55.40;30.25;;;1.10;99.90;;;;;;12511906;28;20486;-42
2021/01/26 01:30:20;;;;;;;55.60;30.30;;;1.20;99.90;;;;;;12499638;28;20779;-42
2021/01/26 01:36:21;;;;;;;54.33;29.90;;;1.20;99.90;;;;;;12493158;28;20736;-42
2021/01/26 01:42:23;;;;;;;48.42;28.52;;;1.30;99.90;;;;;;12511818;28;20049;-42
2021/01/26 01:48:30;;;;;;;48.90;27.80;;;1.20;99.90;;;;;;12504858;28;20041;-42
2021/01/26 01:54:43;;;;;;;48.17;27.40;;;1.10;99.90;;;;;;12485304;28;20098;-42
2021/01/26 02:00:51;;;;;;;48.67;26.30;;;1.10;99.90;;;;;;12475671;28;20590;-42
2021/01/26 02:06:55;;;;;;;53.72;29.75;;;1.00;99.90;;;;;;12484599;28;20045;-42
2021/01/26 02:12:57;;;;;;;53.75;29.08;;;1.00;99.90;;;;;;12497160;28;20091;-42
2021/01/26 02:19:10;;;;;;;47.08;26.23;;;1.00;99.90;;;;;;12501650;28;20136;-42
2021/01/26 02:25:35;;;;;;;46.13;25.08;;;1.00;99.90;;;;;;12498973;28;20106;-42
2021/01/26 02:31:54;;;;;;;34.03;19.70;;;0.90;99.90;;;;;;12498727;28;20893;-42
2021/01/26 02:38:41;;;;;;;33.05;19.13;;;1.00;99.90;;;;;;12497224;28;20107;-42
2021/01/26 02:45:00;;;;;;;34.92;20.13;;;1.00;99.90;;;;;;12453145;28;20087;-42
2021/01/26 02:51:13;;;;;;;28.83;18.80;;;1.00;99.90;;;;;;12486801;28;20045;-42
2021/01/26 02:57:24;;;;;;;35.75;21.60;;;1.00;99.90;;;;;;12491519;28;20139;-42
2021/01/26 03:03:49;;;;;;;33.95;20.23;;;1.10;99.90;;;;;;12506682;28;20094;-42
2021/01/26 03:09:56;;;;;;;33.83;21.27;;;1.20;99.90;;;;;;12491383;28;20033;-42
2021/01/26 03:16:13;;;;;;;32.58;20.02;;;1.20;99.90;;;;;;12497630;28;20060;-42
2021/01/26 03:22:18;;;;;;;28.83;18.80;;;1.30;99.90;;;;;;12495335;28;20081;-42
2021/01/26 03:28:24;;;;;;;25.05;16.13;;;1.40;99.90;;;;;;12493749;28;20049;-42
2021/01/26 03:34:26;;;;;;;23.55;15.43;;;1.50;99.90;;;;;;12494056;28;20153;-42
2021/01/26 03:40:28;;;;;;;23.65;13.65;;;1.60;99.90;;;;;;12496676;28;20163;-42
2021/01/26 03:46:58;;;;;;;18.13;11.38;;;1.70;99.90;;;;;;12476490;28;20132;-42
2021/01/26 03:53:26;;;;;;;15.43;10.40;;;1.80;99.90;;;;;;12474292;28;20080;-42
2021/01/26 03:59:32;;;;;;;14.35;9.68;;;1.80;99.90;;;;;;12481222;28;20057;-42
2021/01/26 04:05:52;;;;;;;14.48;9.82;;;1.70;99.90;;;;;;12468807;28;20073;-42
2021/01/26 04:12:01;;;;;;;13.10;9.02;;;1.70;99.90;;;;;;12483938;28;20719;-42
2021/01/26 04:18:05;;;;;;;10.80;6.68;;;1.70;99.90;;;;;;12486959;28;20048;-42
2021/01/26 04:24:07;;;;;;;8.98;5.95;;;1.90;99.90;;;;;;12494696;28;20143;-42
2021/01/26 04:30:09;;;;;;;7.75;5.03;;;2.00;99.90;;;;;;12499402;28;20383;-42
2021/01/26 04:36:14;;;;;;;7.63;4.47;;;2.10;99.90;;;;;;12492437;28;20140;-42
2021/01/26 04:42:22;;;;;;;7.82;4.60;;;2.00;99.90;;;;;;12507059;28;20477;-41
2021/01/26 04:48:31;;;;;;;5.85;3.90;;;2.00;99.90;;;;;;12483717;28;20084;-42
2021/01/26 04:54:59;;;;;;;8.10;4.30;;;2.10;99.90;;;;;;12502178;28;20067;-42
2021/01/26 05:01:21;;;;;;;7.60;4.47;;;2.00;99.90;;;;;;12502971;28;20114;-42
2021/01/26 05:07:29;;;;;;;6.78;4.13;;;2.00;99.90;;;;;;12485103;28;20063;-42
2021/01/26 05:13:38;;;;;;;6.53;3.95;;;2.10;99.90;;;;;;12507285;28;20045;-42
2021/01/26 05:19:53;;;;;;;8.43;4.40;;;2.20;99.90;;;;;;12506887;28;20073;-42
2021/01/26 05:25:55;;;;;;;7.22;4.47;;;2.20;99.90;;;;;;12491929;28;20045;-42
2021/01/26 05:32:01;;;;;;;9.25;4.72;;;2.30;99.90;;;;;;12503413;28;20061;-42
2021/01/26 05:38:03;;;;;;;8.77;5.40;;;2.30;99.90;;;;;;12498362;28;20080;-42
2021/01/26 05:44:04;;;;;;;9.65;5.50;;;2.20;99.90;;;;;;12492896;28;20832;-42
2021/01/26 05:50:24;;;;;;;8.88;5.55;;;2.40;99.90;;;;;;12487488;28;20125;-42
2021/01/26 05:56:27;;;;;;;10.55;5.70;;;2.40;99.90;;;;;;12501103;28;20080;-42
2021/01/26 06:02:28;;;;;;;8.38;4.65;;;2.50;99.90;;;;;;12475732;28;20657;-42
2021/01/26 06:08:32;;;;;;;7.75;3.72;;;2.50;99.90;;;;;;12485699;28;20449;-42
2021/01/26 06:14:34;;;;;;;5.47;3.40;;;2.50;99.90;;;;;;12502346;28;20057;-42
2021/01/26 06:20:36;;;;;;;5.82;3.60;;;2.30;99.90;;;;;;12504584;28;20825;-42
2021/01/26 06:26:41;;;;;;;6.57;4.03;;;2.30;99.90;;;;;;12504649;28;20045;-42
2021/01/26 06:33:19;;;;;;;14.82;8.35;;;2.10;99.90;;;;;;12497316;28;20512;-42
2021/01/26 06:39:32;;;;;;;23.00;13.02;;;2.20;99.90;;;;;;12503363;28;20073;-42
2021/01/26 06:45:58;;;;;;;24.45;13.73;;;2.10;99.90;;;;;;12502415;28;20048;-42
2021/01/26 06:52:00;;;;;;;27.90;15.30;;;2.00;99.90;;;;;;12476356;28;20057;-42
2021/01/26 06:58:33;;;;;;;28.92;15.55;;;2.10;99.90;;;;;;12496863;28;20445;-42
2021/01/26 07:04:55;;;;;;;31.48;18.48;;;1.90;99.90;;;;;;12431837;28;20053;-42
2021/01/26 07:11:17;;;;;;;38.85;18.88;;;1.90;99.90;;;;;;12480533;28;20544;-42
2021/01/26 07:17:30;;;;;;;39.13;19.13;;;1.80;99.90;;;;;;12502052;28;20106;-42
2021/01/26 07:23:57;;;;;;;39.72;19.13;;;1.90;99.90;;;;;;12496574;28;20052;-42
2021/01/26 07:30:31;;;;;;;39.58;19.23;;;1.80;99.90;;;;;;12491025;28;20144;-42
2021/01/26 07:36:36;;;;;;;39.45;19.27;;;1.70;99.90;;;;;;12485375;28;20052;-42
2021/01/26 07:42:51;;;;;;;39.75;19.02;;;1.70;99.90;;;;;;12470829;28;20090;-42
2021/01/26 07:48:59;;;;;;;;;;;1.80;99.90;;;;;;12505451;28;20178;-42
2021/01/26 07:55:19;;;;;;;30.67;16.58;;;1.80;99.90;;;;;;12503965;28;20011;-42
2021/01/26 08:01:25;;;;;;;34.97;17.33;;;1.80;99.90;;;;;;12501301;28;20043;-42
2021/01/26 08:07:31;;;;;;;34.10;17.48;;;1.80;99.90;;;;;;12499015;28;20041;-42
2021/01/26 08:13:40;;;;;;;32.63;17.27;;;1.90;99.90;;;;;;12494656;28;20052;-42
2021/01/26 08:20:00;;;;;;;34.08;18.13;;;1.80;99.90;;;;;;12498490;28;20148;-42
2021/01/26 08:26:17;;;;;;;33.05;18.50;;;1.80;99.90;;;;;;12486049;28;20456;-42
2021/01/26 08:32:27;;;;;;;36.65;21.08;;;1.90;99.90;;;;;;12506085;28;20037;-42
2021/01/26 08:38:49;;;;;;;35.25;20.80;;;1.80;99.90;;;;;;12492110;28;20335;-42
2021/01/26 08:44:51;;;;;;;37.45;20.73;;;1.90;99.90;;;;;;12495525;28;20494;-42
2021/01/26 08:50:52;;;;;;;33.72;20.88;;;1.90;99.90;;;;;;12507290;28;20392;-42
2021/01/26 08:56:54;;;;;;;32.63;19.90;;;1.90;99.90;;;;;;12496074;28;20142;-42
2021/01/26 09:02:56;;;;;;;33.70;19.33;;;1.80;99.90;;;;;;12495336;28;20037;-42
2021/01/26 09:08:57;;;;;;;33.80;20.80;;;1.80;99.90;;;;;;12495115;28;20175;-42
2021/01/26 09:15:01;;;;;;;36.17;20.08;;;1.90;99.90;;;;;;12501973;28;20106;-42
2021/01/26 09:21:07;;;;;;;33.88;18.60;;;1.90;99.90;;;;;;12509567;28;20756;-42
2021/01/26 09:27:35;;;;;;;34.72;18.73;;;1.90;99.90;;;;;;12488169;28;20484;-42
2021/01/26 09:33:38;;;;;;;33.63;18.20;;;1.90;99.90;;;;;;12499865;28;20084;-42
2021/01/26 09:39:39;;;;;;;32.58;18.65;;;1.90;99.90;;;;;;12496136;28;20136;-42
2021/01/26 09:45:42;;;;;;;34.35;18.42;;;1.90;99.90;;;;;;12486882;28;20053;-42
2021/01/26 09:51:49;;;;;;;32.67;18.33;;;1.90;99.90;;;;;;12493601;28;20102;-42
2021/01/26 09:57:54;;;;;;;31.17;17.73;;;1.90;99.90;;;;;;12502484;28;20045;-42
2021/01/26 10:04:00;;;;;;;;;;;2.00;99.90;;;;;;12499910;28;20486;-42
2021/01/26 10:10:18;;;;;;;28.15;16.45;;;2.00;99.90;;;;;;12492084;28;20621;-42
2021/01/26 10:16:39;;;;;;;33.17;17.33;;;2.00;99.90;;;;;;12500800;28;20095;-42
2021/01/26 10:22:40;;;;;;;32.55;18.15;;;2.10;99.90;;;;;;12486529;28;20143;-42
2021/01/26 10:29:19;;;;;;;34.05;19.90;;;2.10;99.90;;;;;;12486546;28;20502;-42
2021/01/26 10:35:27;;;;;;;30.05;17.00;;;1.90;99.90;;;;;;12474235;28;20049;-42
2021/01/26 10:41:33;;;;;;;34.10;17.67;;;2.10;99.90;;;;;;12458235;28;20882;-42
2021/01/26 10:47:40;;;;;;;33.42;18.23;;;2.10;99.90;;;;;;12494257;28;20050;-42
2021/01/26 10:53:47;;;;;;;27.35;16.52;;;2.10;99.90;;;;;;12502688;28;20068;-42
2021/01/26 10:59:48;;;;;;;30.75;17.23;;;2.10;99.90;;;;;;12500992;28;20060;-42
2021/01/26 11:05:50;;;;;;;29.73;18.25;;;2.20;99.90;;;;;;12496707;28;20396;-42
2021/01/26 11:11:51;;;;;;;30.00;17.38;;;2.20;99.90;;;;;;12497494;28;20057;-42
2021/01/26 11:17:53;;;;;;;29.10;17.05;;;2.40;99.90;;;;;;12488703;28;20140;-45
2021/01/26 11:23:55;;;;;;;26.60;14.88;;;2.40;99.90;;;;;;12499136;28;20484;-42
2021/01/26 11:29:56;;;;;;;26.23;14.95;;;2.70;99.90;;;;;;12490440;28;20151;-42
2021/01/26 11:35:58;;;;;;;23.90;14.35;;;2.80;99.90;;;;;;12493579;28;20136;-42
2021/01/26 11:42:00;;;;;;;24.90;15.52;;;2.70;99.90;;;;;;12498554;28;20056;-42
2021/01/26 11:48:03;;;;;;;26.98;15.40;;;2.70;99.90;;;;;;12459077;28;22707;-42
2021/01/26 11:54:05;;;;;;;25.38;15.10;;;2.80;99.90;;;;;;12511605;28;20064;-42
2021/01/26 12:00:09;;;;;;;21.77;13.98;;;3.00;99.90;;;;;;12505869;28;20489;-42
2021/01/26 12:06:10;;;;;;;20.73;13.40;;;3.00;99.90;;;;;;12497706;28;20041;-42
2021/01/26 12:12:11;;;;;;;21.13;12.73;;;3.20;99.90;;;;;;12497974;28;20136;-42
2021/01/26 12:18:13;;;;;;;18.67;12.63;;;3.30;99.90;;;;;;12507735;28;20375;-42
2021/01/26 12:24:14;;;;;;;21.85;12.02;;;3.00;99.90;;;;;;12490576;28;20133;-42
2021/01/26 12:30:17;;;;;;;16.10;10.77;;;3.10;99.90;;;;;;12495580;28;20505;-42
2021/01/26 12:36:18;;;;;;;14.98;9.93;;;3.00;99.90;;;;;;12481834;28;20079;-42
2021/01/26 12:42:20;;;;;;;15.13;10.15;;;3.00;99.90;;;;;;12498230;28;20123;-42
2021/01/26 12:48:21;;;;;;;15.45;9.93;;;3.20;99.90;;;;;;12495593;28;20057;-42
2021/01/26 12:54:23;;;;;;;16.58;10.63;;;3.30;99.90;;;;;;12509262;28;20056;-42
2021/01/26 13:00:25;;;;;;;15.93;10.68;;;3.30;99.90;;;;;;12477978;28;20041;-42
2021/01/26 13:06:27;;;;;;;14.68;9.30;;;3.40;99.90;;;;;;12491200;28;20101;-42
2021/01/26 13:12:29;;;;;;;13.05;8.23;;;3.50;99.90;;;;;;12497948;28;20509;-42
2021/01/26 13:18:30;;;;;;;13.68;7.95;;;3.70;99.90;;;;;;12503185;28;20072;-42
2021/01/26 13:24:32;;;;;;;14.93;8.63;;;3.50;99.90;;;;;;12501380;28;20060;-42
2021/01/26 13:30:33;;;;;;;14.00;8.43;;;3.30;99.90;;;;;;12504745;28;20505;-42
2021/01/26 13:36:35;;;;;;;13.45;8.55;;;3.40;99.90;;;;;;12475572;28;20152;-42
2021/01/26 13:42:36;;;;;;;13.00;8.23;;;3.40;99.90;;;;;;12488227;28;20840;-42
2021/01/26 13:48:38;;;;;;;12.95;8.48;;;3.50;99.90;;;;;;12485383;28;20076;-42
2021/01/26 13:54:39;;;;;;;12.73;8.48;;;3.50;99.90;;;;;;12502153;28;20048;-42
2021/01/26 14:00:41;;;;;;;11.88;7.63;;;3.80;99.90;;;;;;12500583;28;21031;-42
2021/01/26 14:06:44;;;;;;;13.38;6.90;;;3.80;99.90;;;;;;12495107;28;20130;-42
2021/01/26 14:12:46;;;;;;;11.88;6.68;;;3.80;99.90;;;;;;12493870;28;20068;-42
2021/01/26 14:18:48;;;;;;;12.48;7.63;;;3.60;99.90;;;;;;12506815;28;20089;-42
2021/01/26 14:24:50;;;;;;;11.27;7.30;;;3.50;99.90;;;;;;12490791;28;20478;-42
2021/01/26 14:30:52;;;;;;;13.10;8.20;;;3.60;99.90;;;;;;12492258;28;20114;-42
2021/01/26 14:36:53;;;;;;;12.63;8.13;;;3.50;99.90;;;;;;12495430;28;20044;-42
2021/01/26 14:42:55;;;;;;;15.52;8.65;;;3.40;99.90;;;;;;12476620;28;20053;-42
2021/01/26 14:48:59;;;;;;;15.13;8.15;;;3.30;99.90;;;;;;12492674;28;20091;-42
2021/01/26 14:55:00;;;;;;;13.50;8.20;;;3.30;99.90;;;;;;12502711;28;20167;-42
2021/01/26 15:01:01;;;;;;;12.93;8.07;;;3.20;99.90;;;;;;12496288;28;20706;-42
2021/01/26 15:07:03;;;;;;;13.45;9.00;;;3.30;99.90;;;;;;12489782;28;20109;-42
2021/01/26 15:13:04;;;;;;;15.52;8.95;;;3.20;99.90;;;;;;12480220;28;20045;-42
2021/01/26 15:19:06;;;;;;;14.95;8.88;;;3.10;99.90;;;;;;12505360;28;20049;-42
2021/01/26 15:25:09;;;;;;;18.60;9.23;;;3.10;99.90;;;;;;12485939;28;20052;-42
2021/01/26 15:31:12;;;;;;;15.75;10.32;;;3.00;99.90;;;;;;12492499;28;20140;-42
2021/01/26 15:37:18;;;;;;;15.07;9.63;;;2.70;99.90;;;;;;12484894;28;20175;-43
2021/01/26 15:43:20;;;;;;;15.65;9.80;;;2.70;99.90;;;;;;12492651;28;20091;-42
2021/01/26 15:49:21;;;;;;;15.38;10.00;;;2.60;99.90;;;;;;12494312;28;20479;-42
2021/01/26 15:55:22;;;;;;;18.08;10.18;;;2.50;99.90;;;;;;12486055;28;20107;-42
2021/01/26 16:01:24;;;;;;;18.20;10.93;;;2.30;99.90;;;;;;12501375;28;20048;-42
2021/01/26 16:07:25;;;;;;;21.98;12.73;;;2.10;99.90;;;;;;12494037;28;20580;-42
2021/01/26 16:13:27;;;;;;;20.83;10.93;;;2.10;99.90;;;;;;12495949;28;20157;-42
2021/01/26 16:19:28;;;;;;;20.67;11.70;;;2.20;99.90;;;;;;12509068;28;20491;-42
2021/01/26 16:25:29;;;;;;;18.60;10.50;;;2.20;99.90;;;;;;12503501;28;20080;-42
2021/01/26 16:31:31;;;;;;;16.65;9.98;;;2.30;99.90;;;;;;12509168;28;20080;-42
2021/01/26 16:37:32;;;;;;;14.98;9.20;;;2.30;99.90;;;;;;12492960;28;20044;-42
2021/01/26 16:43:34;;;;;;;18.52;11.00;;;2.40;99.90;;;;;;12499830;28;20080;-42
2021/01/26 16:49:35;;;;;;;12.70;8.48;;;2.60;99.90;;;;;;12505067;28;20124;-42
2021/01/26 16:55:36;;;;;;;17.77;9.35;;;2.60;99.90;;;;;;12514858;28;20049;-42
2021/01/26 17:01:38;;;;;;;17.02;9.20;;;2.60;99.90;;;;;;12490630;28;20084;-42
2021/01/26 17:07:39;;;;;;;12.65;8.40;;;2.50;99.90;;;;;;12486054;28;20041;-42
2021/01/26 17:13:41;;;;;;;12.95;8.27;;;2.40;99.90;;;;;;12505029;28;20049;-42
2021/01/26 17:19:42;;;;;;;14.50;8.05;;;2.40;99.90;;;;;;12509878;28;20144;-42
2021/01/26 17:25:46;;;;;;;12.88;7.43;;;2.30;99.90;;;;;;12495274;28;20045;-42
2021/01/26 17:31:47;;;;;;;16.88;7.30;;;2.10;99.90;;;;;;12494189;28;20060;-43
2021/01/26 17:37:49;;;;;;;13.10;8.05;;;1.90;99.90;;;;;;12485594;28;20040;-42
2021/01/26 17:43:50;;;;;;;12.20;7.80;;;1.80;99.90;;;;;;12495100;28;20101;-42
2021/01/26 17:49:51;;;;;;;13.18;7.80;;;1.90;99.90;;;;;;12500011;28;20615;-42
2021/01/26 17:55:52;;;;;;;17.50;7.57;;;2.00;99.90;;;;;;12504678;28;20053;-42
2021/01/26 18:01:54;;;;;;;13.48;7.32;;;2.10;99.90;;;;;;12470378;28;20045;-42
2021/01/26 18:07:58;;;;;;;11.35;6.45;;;2.20;99.90;;;;;;12502262;28;20056;-42
2021/01/26 18:13:59;;;;;;;12.23;7.15;;;2.10;99.90;;;;;;12496559;28;20056;-42
2021/01/26 18:20:00;;;;;;;14.35;8.27;;;2.20;99.90;;;;;;12502449;28;20144;-42
2021/01/26 18:26:03;;;;;;;15.10;9.05;;;2.10;99.90;;;;;;12479229;28;20144;-42
2021/01/26 18:32:05;;;;;;;12.55;7.95;;;2.10;99.90;;;;;;12488351;28;20053;-42
2021/01/26 18:38:06;;;;;;;14.57;8.50;;;2.20;99.90;;;;;;12471743;28;20057;-42
2021/01/26 18:44:09;;;;;;;14.80;8.98;;;2.30;99.90;;;;;;12479747;28;20041;-42
2021/01/26 18:50:13;;;;;;;15.95;8.90;;;2.20;99.90;;;;;;12486993;28;20044;-41
2021/01/26 18:56:14;;;;;;;21.02;9.60;;;2.20;99.90;;;;;;12490302;28;20072;-42
2021/01/26 19:02:16;;;;;;;17.60;10.50;;;2.10;99.90;;;;;;12473423;28;20127;-42
2021/01/26 19:08:17;;;;;;;17.73;11.00;;;2.00;99.90;;;;;;12479372;28;20053;-42
2021/01/26 19:14:20;;;;;;;18.55;11.65;;;1.80;99.90;;;;;;12463078;28;20053;-42
2021/01/26 19:20:21;;;;;;;22.48;13.05;;;1.80;99.90;;;;;;12447554;28;20132;-42
2021/01/26 19:26:23;;;;;;;20.92;11.90;;;1.70;99.90;;;;;;12447277;28;20604;-42
2021/01/26 19:32:26;;;;;;;19.92;12.50;;;1.70;99.90;;;;;;12451035;28;20128;-42
2021/01/26 19:38:28;;;;;;;18.40;12.25;;;1.70;99.90;;;;;;12440146;28;20429;-42
2021/01/26 19:44:29;;;;;;;21.70;11.77;;;1.70;99.90;;;;;;12442794;28;20045;-42
2021/01/26 19:50:30;;;;;;;24.75;12.30;;;1.80;99.90;;;;;;12465750;28;20053;-42
2021/01/26 19:56:32;;;;;;;22.35;12.68;;;1.80;99.90;;;;;;12447631;28;20049;-42
2021/01/26 20:02:33;;;;;;;21.58;11.82;;;1.70;99.90;;;;;;12467818;28;20575;-42
2021/01/26 20:08:34;;;;;;;20.55;12.35;;;1.80;99.90;;;;;;12508000;28;20045;-42
2021/01/26 20:14:36;;;;;;;23.60;12.98;;;1.80;99.90;;;;;;12494288;28;20153;-42
2021/01/26 20:20:38;;;;;;;22.38;12.82;;;1.90;99.90;;;;;;12509385;28;20049;-42
2021/01/26 20:26:41;;;;;;;26.70;12.68;;;1.90;99.90;;;;;;12495353;28;20056;-42
2021/01/26 20:32:43;;;;;;;24.70;12.70;;;2.10;99.90;;;;;;12489343;28;20045;-42
2021/01/26 20:38:44;;;;;;;21.80;12.98;;;2.30;99.90;;;;;;12499583;28;20429;-42
2021/01/26 20:44:45;;;;;;;24.38;12.85;;;2.20;99.90;;;;;;12500704;28;20110;-42
2021/01/26 20:50:47;;;;;;;20.08;11.95;;;2.30;99.90;;;;;;12497192;28;20040;-42
2021/01/26 20:56:48;;;;;;;23.45;12.20;;;2.30;99.90;;;;;;12498722;28;20049;-42
2021/01/26 21:02:49;;;;;;;18.67;11.90;;;2.40;99.90;;;;;;12499678;28;20051;-42
2021/01/26 21:08:51;;;;;;;20.17;13.15;;;2.30;99.90;;;;;;12489975;28;20654;-42
2021/01/26 21:14:52;;;;;;;21.42;13.48;;;2.30;99.90;;;;;;12507931;28;20048;-42
2021/01/26 21:20:57;;;;;;;19.02;12.18;;;2.30;99.90;;;;;;12491865;28;20049;-42
2021/01/26 21:26:58;;;;;;;25.90;13.73;;;2.30;99.90;;;;;;12499847;28;20152;-42
2021/01/26 21:33:00;;;;;;;19.00;12.38;;;2.40;99.90;;;;;;12492149;28;20048;-42
2021/01/26 21:39:04;;;;;;;18.33;12.40;;;2.40;99.90;;;;;;12490211;28;20049;-42
2021/01/26 21:45:07;;;;;;;19.27;11.98;;;2.40;99.90;;;;;;12496374;28;20977;-42
2021/01/26 21:51:08;;;;;;;22.13;13.77;;;2.40;99.90;;;;;;12502951;28;20040;-42
2021/01/26 21:57:10;;;;;;;23.73;13.75;;;2.40;99.90;;;;;;12497789;28;20061;-42
2021/01/26 22:03:11;;;;;;;22.67;13.38;;;2.40;99.90;;;;;;12498563;28;20049;-42
2021/01/26 22:09:12;;;;;;;22.88;14.25;;;2.40;99.90;;;;;;12502362;28;20049;-42
2021/01/26 22:15:19;;;;;;;24.65;14.68;;;2.40;99.90;;;;;;12505386;28;20556;-42
2021/01/26 22:21:21;;;;;;;24.17;16.10;;;2.30;99.90;;;;;;12505836;28;20041;-42
2021/01/26 22:27:23;;;;;;;27.30;16.73;;;2.40;99.90;;;;;;12480464;28;20057;-41
2021/01/26 22:33:25;;;;;;;29.58;16.15;;;2.30;99.90;;;;;;12503423;28;20094;-42
2021/01/26 22:39:27;;;;;;;31.33;16.67;;;2.30;99.90;;;;;;12493548;28;20101;-42
2021/01/26 22:45:28;;;;;;;37.55;16.65;;;2.20;99.90;;;;;;12489405;28;20041;-42
2021/01/26 22:51:29;;;;;;;27.23;17.30;;;2.20;99.90;;;;;;12486084;28;20037;-42
2021/01/26 22:57:31;;;;;;;31.15;18.02;;;2.20;99.90;;;;;;12504400;28;20095;-42
2021/01/26 23:03:32;;;;;;;30.30;17.92;;;2.10;99.90;;;;;;12454623;28;20128;-41
2021/01/26 23:09:34;;;;;;;30.45;17.95;;;2.00;99.90;;;;;;12477263;28;20052;-42
2021/01/26 23:15:37;;;;;;;35.25;18.70;;;2.00;99.90;;;;;;12502134;28;20136;-42
2021/01/26 23:21:39;;;;;;;32.13;18.60;;;2.00;99.90;;;;;;12512940;28;20041;-42
2021/01/26 23:27:40;;;;;;;36.33;20.63;;;1.90;99.90;;;;;;12497954;28;20098;-42
2021/01/26 23:33:41;;;;;;;36.80;21.23;;;2.00;99.90;;;;;;12492149;28;20044;-42
2021/01/26 23:39:42;;;;;;;37.42;21.13;;;1.90;99.90;;;;;;12495306;28;20045;-42
2021/01/26 23:45:43;;;;;;;41.33;23.15;;;1.90;99.90;;;;;;12501526;28;20094;-42
2021/01/26 23:51:45;;;;;;;43.22;23.67;;;1.80;99.90;;;;;;12499205;28;20474;-42
2021/01/26 23:57:47;;;;;;;40.15;23.10;;;1.80;99.90;;;;;;12513876;28;20045;-43
